| time (UTC) | temp F | wind direction | speed knots | gust knots | rain 1hr in | rain 24hr in | rain mn in | humidity % | barometer mb |
| 20260505152957 | 67 | 227 | 3.5 | 6.1 | 0.00 | 0.00 | 0.00 | 64 | 1011.3 |
| 20260505152458 | 67 | 198 | 4.3 | 6.1 | 0.00 | 0.00 | 0.00 | 62 | 1011.3 |
| 20260505151958 | 67 | 192 | 2.6 | 6.1 | 0.00 | 0.00 | 0.00 | 62 | 1011.2 |
| 20260505151457 | 67 | 219 | 2.6 | 6.1 | 0.00 | 0.00 | 0.00 | 63 | 1011.1 |
| 20260505150958 | 66 | 240 | 3.5 | 5.2 | 0.00 | 0.00 | 0.00 | 64 | 1011.1 |
| 20260505150458 | 67 | 177 | 1.7 | 4.3 | 0.00 | 0.00 | 0.00 | 64 | 1011.0 |
| 20260505140457 | 60 | 139 | 0.9 | 2.6 | 0.00 | 0.00 | 0.00 | 72 | 1010.4 |
| 20260505125000 | 53 | 128 | 0.0 | 1.7 | 0.00 | 0.00 | 0.00 | 80 | 1009.6 |
| 20260505124457 | 53 | 128 | 0.9 | 2.6 | 0.00 | 0.00 | 0.00 | 80 | 1009.6 |
| 20260505123957 | 53 | 128 | 0.9 | 2.6 | 0.00 | 0.00 | 0.00 | 79 | 1009.5 |
| 20260505123457 | 53 | 128 | 0.9 | 1.7 | 0.00 | 0.00 | 0.00 | 78 | 1009.5 |
| 20260505122458 | 54 | 128 | 1.7 | 2.6 | 0.00 | 0.00 | 0.00 | 78 | 1009.4 |
| 20260505121957 | 54 | 128 | 0.9 | 1.7 | 0.00 | 0.00 | 0.00 | 76 | 1009.4 |
| 20260505121456 | 54 | 128 | 0.9 | 3.5 | 0.00 | 0.00 | 0.00 | 76 | 1009.2 |
| 20260505120958 | 54 | 119 | 2.6 | 3.5 | 0.00 | 0.00 | 0.00 | 78 | 1009.1 |
| 20260505120456 | 54 | 126 | 1.7 | 2.6 | 0.00 | 0.00 | 0.00 | 78 | 1009.2 |
| 20260505115957 | 54 | 106 | 0.9 | 2.6 | 0.00 | 0.00 | 0.00 | 79 | 1009.1 |
| 20260505114958 | 53 | 124 | 2.6 | 3.5 | 0.00 | 0.00 | 0.00 | 79 | 1009.1 |
| 20260505114457 | 54 | 103 | 2.6 | 4.3 | 0.00 | 0.00 | 0.00 | 79 | 1009.0 |
| 20260505113957 | 54 | 106 | 2.6 | 3.5 | 0.00 | 0.00 | 0.00 | 79 | 1009.0 |
| 20260505112957 | 54 | 108 | 2.6 | 3.5 | 0.00 | 0.00 | 0.00 | 78 | 1008.8 |
| 20260505112457 | 54 | 109 | 2.6 | 2.6 | 0.00 | 0.00 | 0.00 | 78 | 1008.8 |
| 20260505111957 | 54 | 101 | 1.7 | 3.5 | 0.00 | 0.00 | 0.00 | 78 | 1008.8 |
| 20260505110958 | 54 | 103 | 1.7 | 2.6 | 0.00 | 0.00 | 0.00 | 77 | 1008.6 |
| 20260505110457 | 54 | 105 | 0.9 | 4.3 | 0.00 | 0.00 | 0.00 | 77 | 1008.6 |
| 20260505101959 | 56 | 92 | 2.6 | 4.3 | 0.00 | 0.00 | 0.00 | 74 | 1008.3 |
| 20260505101457 | 56 | 88 | 1.7 | 3.5 | 0.00 | 0.00 | 0.00 | 74 | 1008.2 |
| 20260505100957 | 56 | 88 | 1.7 | 3.5 | 0.00 | 0.00 | 0.00 | 75 | 1008.1 |
| 20260505100457 | 56 | 103 | 2.6 | 3.5 | 0.00 | 0.00 | 0.00 | 76 | 1008.1 |
| 20260505100000 | 56 | 100 | 3.5 | 5.2 | 0.00 | 0.00 | 0.00 | 76 | 1008.0 |
| 20260505094957 | 55 | 96 | 2.6 | 4.3 | 0.00 | 0.00 | 0.00 | 75 | 1007.9 |
| 20260505094457 | 56 | 101 | 2.6 | 2.6 | 0.00 | 0.00 | 0.00 | 74 | 1007.9 |
| 20260505093959 | 56 | 96 | 1.7 | 2.6 | 0.00 | 0.00 | 0.00 | 74 | 1007.9 |
| 20260505093456 | 56 | 96 | 1.7 | 2.6 | 0.00 | 0.00 | 0.00 | 73 | 1007.9 |
| 20260505092958 | 56 | 123 | 1.7 | 2.6 | 0.00 | 0.00 | 0.00 | 74 | 1007.9 |
| 20260505091957 | 56 | 96 | 1.7 | 2.6 | 0.00 | 0.00 | 0.00 | 74 | 1007.8 |
| 20260505091456 | 56 | 95 | 0.9 | 1.7 | 0.00 | 0.00 | 0.00 | 74 | 1007.8 |
| 20260505090956 | 56 | 95 | 0.0 | 2.6 | 0.00 | 0.00 | 0.00 | 73 | 1007.7 |
| 20260505090456 | 57 | 95 | 1.7 | 4.3 | 0.00 | 0.00 | 0.00 | 72 | 1007.7 |
| 20260505085959 | 57 | 95 | 2.6 | 4.3 | 0.00 | 0.00 | 0.00 | 72 | 1007.7 |
| 20260505085456 | 58 | 107 | 1.7 | 2.6 | 0.00 | 0.00 | 0.00 | 70 | 1007.7 |
| 20260505084957 | 58 | 98 | 1.7 | 2.6 | 0.00 | 0.00 | 0.00 | 70 | 1007.6 |
| 20260505084457 | 58 | 136 | 0.9 | 2.6 | 0.00 | 0.00 | 0.00 | 70 | 1007.5 |
| 20260505083457 | 59 | 129 | 1.7 | 3.5 | 0.00 | 0.00 | 0.00 | 69 | 1007.5 |
| 20260505082957 | 59 | 117 | 2.6 | 5.2 | 0.00 | 0.00 | 0.00 | 68 | 1007.5 |
| 20260505082456 | 60 | 126 | 2.6 | 7.0 | 0.00 | 0.00 | 0.00 | 68 | 1007.5 |
| 20260505081958 | 60 | 128 | 3.5 | 7.0 | 0.00 | 0.00 | 0.00 | 68 | 1007.5 |
| 20260505081456 | 60 | 145 | 2.6 | 5.2 | 0.00 | 0.00 | 0.00 | 69 | 1007.4 |
| 20260505080957 | 60 | 136 | 3.5 | 6.1 | 0.00 | 0.00 | 0.00 | 68 | 1007.4 |
| 20260505080458 | 60 | 136 | 3.5 | 5.2 | 0.00 | 0.00 | 0.00 | 68 | 1007.3 |
| 20260505075457 | 58 | 180 | 1.7 | 2.6 | 0.00 | 0.00 | 0.00 | 72 | 1007.2 |
| 20260505074457 | 58 | 132 | 1.7 | 2.6 | 0.00 | 0.00 | 0.00 | 72 | 1007.3 |
| 20260505073958 | 58 | 143 | 0.9 | 1.7 | 0.00 | 0.00 | 0.00 | 73 | 1007.3 |
| 20260505073457 | 58 | 86 | 0.9 | 0.9 | 0.00 | 0.00 | 0.00 | 73 | 1007.1 |
| 20260505072957 | 58 | 86 | 0.0 | 0.9 | 0.00 | 0.00 | 0.00 | 73 | 1007.0 |
| 20260505072457 | 57 | 86 | 0.0 | 0.0 | 0.00 | 0.00 | 0.00 | 74 | 1006.9 |
| 20260505071957 | 57 | 86 | 0.0 | 0.0 | 0.00 | 0.00 | 0.00 | 74 | 1006.8 |
| 20260505071500 | 57 | 86 | 0.0 | 0.0 | 0.00 | 0.00 | 0.00 | 73 | 1006.7 |
| 20260505071000 | 58 | 86 | 0.0 | 0.0 | 0.00 | 0.00 | 0.00 | 72 | 1006.7 |
| 20260505070459 | 58 | 86 | 0.0 | 0.9 | 0.00 | 0.00 | 0.00 | 72 | 1006.6 |
| 20260505070000 | 58 | 86 | 0.0 | 0.9 | 0.00 | 0.00 | 0.00 | 72 | 1006.5 |
| 20260505065458 | 58 | 86 | 0.0 | 0.0 | 0.00 | 0.00 | 0.00 | 70 | 1006.4 |
| 20260505065000 | 58 | 86 | 0.0 | 0.0 | 0.00 | 0.00 | 0.00 | 69 | 1006.4 |
| 20260505064459 | 59 | 86 | 0.0 | 0.9 | 0.00 | 0.00 | 0.00 | 69 | 1006.3 |
| 20260505064003 | 59 | 86 | 0.0 | 0.9 | 0.00 | 0.00 | 0.00 | 70 | 1006.3 |
| 20260505063500 | 60 | 86 | 0.0 | 0.0 | 0.00 | 0.00 | 0.00 | 68 | 1006.3 |
| 20260505063000 | 60 | 86 | 0.0 | 1.7 | 0.00 | 0.00 | 0.00 | 67 | 1006.3 |
| 20260505062000 | 60 | 86 | 0.0 | 0.9 | 0.00 | 0.00 | 0.00 | 68 | 1006.3 |
| 20260505061500 | 61 | 86 | 0.0 | 1.7 | 0.00 | 0.00 | 0.00 | 65 | 1006.3 |
| 20260505061000 | 61 | 86 | 0.0 | 1.7 | 0.00 | 0.00 | 0.00 | 65 | 1006.2 |
| 20260505060500 | 61 | 86 | 0.9 | 0.9 | 0.00 | 0.00 | 0.00 | 65 | 1006.2 |
| 20260505060000 | 62 | 86 | 0.0 | 0.9 | 0.00 | 0.00 | 0.00 | 64 | 1006.1 |
| 20260505055459 | 62 | 86 | 0.0 | 0.9 | 0.00 | 0.00 | 0.00 | 62 | 1006.1 |
| 20260505055000 | 63 | 81 | 0.0 | 0.0 | 0.00 | 0.00 | 0.00 | 63 | 1006.1 |
| 20260505054458 | 62 | 81 | 0.0 | 0.9 | 0.00 | 0.00 | 0.00 | 63 | 1006.0 |
| 20260505053959 | 63 | 81 | 0.0 | 1.7 | 0.00 | 0.00 | 0.00 | 63 | 1006.0 |
| 20260505053459 | 63 | 81 | 0.9 | 4.3 | 0.00 | 0.00 | 0.00 | 62 | 1006.0 |
| 20260505053000 | 64 | 76 | 1.7 | 4.3 | 0.00 | 0.00 | 0.00 | 62 | 1006.0 |
| 20260505052458 | 64 | 74 | 2.6 | 4.3 | 0.00 | 0.00 | 0.00 | 62 | 1006.1 |
| 20260505051959 | 64 | 88 | 2.6 | 7.0 | 0.00 | 0.00 | 0.00 | 62 | 1006.1 |
| 20260505051458 | 64 | 63 | 3.5 | 7.0 | 0.00 | 0.00 | 0.00 | 62 | 1006.0 |
| 20260505050959 | 64 | 83 | 2.6 | 5.2 | 0.00 | 0.00 | 0.00 | 61 | 1006.0 |
| 20260505041507 | 66 | 84 | 2.6 | 4.3 | 0.00 | 0.00 | 0.00 | 60 | 1006.0 |
| 20260505040459 | 67 | 98 | 3.5 | 6.1 | 0.00 | 0.00 | 0.00 | 59 | 1006.0 |
| 20260505040004 | 67 | 102 | 3.5 | 6.1 | 0.00 | 0.00 | 0.00 | 61 | 1005.9 |
| 20260505034959 | 67 | 81 | 3.5 | 7.0 | 0.00 | 0.00 | 0.00 | 60 | 1005.8 |
| 20260505034458 | 68 | 84 | 4.3 | 7.0 | 0.00 | 0.00 | 0.00 | 59 | 1005.8 |
| 20260505033958 | 69 | 110 | 2.6 | 5.2 | 0.00 | 0.00 | 0.00 | 59 | 1005.7 |
| 20260505033458 | 69 | 115 | 3.5 | 4.3 | 0.00 | 0.00 | 0.00 | 58 | 1005.7 |
| 20260505032959 | 70 | 87 | 3.5 | 6.1 | 0.00 | 0.00 | 0.00 | 57 | 1005.6 |
| 20260505031959 | 71 | 110 | 4.3 | 6.1 | 0.00 | 0.00 | 0.00 | 54 | 1005.5 |
| 20260505030959 | 73 | 83 | 2.6 | 4.3 | 0.00 | 0.00 | 0.00 | 50 | 1005.3 |
| 20260505030459 | 74 | 110 | 1.7 | 2.6 | 0.00 | 0.00 | 0.00 | 48 | 1005.2 |
| 20260505025959 | 74 | 112 | 1.7 | 2.6 | 0.00 | 0.00 | 0.00 | 46 | 1005.2 |
| 20260505025458 | 75 | 112 | 1.7 | 2.6 | 0.00 | 0.00 | 0.00 | 45 | 1005.2 |
| 20260505024000 | 76 | 107 | 0.9 | 2.6 | 0.00 | 0.00 | 0.00 | 43 | 1005.1 |
| 20260505022959 | 78 | 111 | 1.7 | 3.5 | 0.00 | 0.00 | 0.00 | 40 | 1005.1 |
| 20260505022005 | 79 | 111 | 1.7 | 3.5 | 0.00 | 0.00 | 0.00 | 37 | 1005.1 |
| 20260505021458 | 79 | 134 | 1.7 | 3.5 | 0.00 | 0.00 | 0.00 | 36 | 1005.1 |
| 20260505021001 | 79 | 136 | 2.6 | 3.5 | 0.00 | 0.00 | 0.00 | 35 | 1005.2 |
| 20260505020458 | 80 | 135 | 1.7 | 3.5 | 0.00 | 0.00 | 0.00 | 34 | 1005.1 |
| 20260505020007 | 80 | 174 | 2.6 | 3.5 | 0.00 | 0.00 | 0.00 | 34 | 1005.2 |
| 20260505015459 | 80 | 190 | 1.7 | 5.2 | 0.00 | 0.00 | 0.00 | 34 | 1005.2 |
| 20260505015005 | 80 | 178 | 1.7 | 4.3 | 0.00 | 0.00 | 0.00 | 34 | 1005.3 |
| 20260505014004 | 81 | 174 | 1.7 | 5.2 | 0.00 | 0.00 | 0.00 | 34 | 1005.4 |
| 20260505013458 | 81 | 165 | 2.6 | 5.2 | 0.00 | 0.00 | 0.00 | 33 | 1005.5 |
| 20260505013000 | 81 | 159 | 2.6 | 5.2 | 0.00 | 0.00 | 0.00 | 33 | 1005.5 |
| 20260505012458 | 81 | 169 | 2.6 | 5.2 | 0.00 | 0.00 | 0.00 | 32 | 1005.5 |
| 20260505012001 | 81 | 108 | 2.6 | 5.2 | 0.00 | 0.00 | 0.00 | 34 | 1005.6 |
| 20260505011458 | 82 | 175 | 2.6 | 5.2 | 0.00 | 0.00 | 0.00 | 33 | 1005.6 |
| 20260505011005 | 81 | 165 | 2.6 | 6.1 | 0.00 | 0.00 | 0.00 | 32 | 1005.6 |
| 20260505010458 | 82 | 209 | 2.6 | 6.1 | 0.00 | 0.00 | 0.00 | 33 | 1005.6 |
| 20260505010006 | 82 | 119 | 2.6 | 6.1 | 0.00 | 0.00 | 0.00 | 34 | 1005.7 |
| 20260505005459 | 82 | 138 | 2.6 | 6.1 | 0.00 | 0.00 | 0.00 | 32 | 1005.7 |
| 20260505005004 | 82 | 132 | 3.5 | 4.3 | 0.00 | 0.00 | 0.00 | 31 | 1005.7 |
| 20260505004458 | 82 | 196 | 1.7 | 5.2 | 0.00 | 0.00 | 0.00 | 36 | 1005.8 |
| 20260505003005 | 82 | 202 | 1.7 | 6.1 | 0.00 | 0.00 | 0.00 | 33 | 1005.9 |
| 20260505002459 | 82 | 132 | 3.5 | 6.1 | 0.00 | 0.00 | 0.00 | 32 | 1005.9 |
| 20260505002004 | 82 | 115 | 1.7 | 6.1 | 0.00 | 0.00 | 0.00 | 33 | 1006.0 |
| 20260505001458 | 83 | 126 | 2.6 | 7.0 | 0.00 | 0.00 | 0.00 | 31 | 1006.0 |
| 20260505001003 | 82 | 56 | 0.9 | 7.0 | 0.00 | 0.00 | 0.00 | 33 | 1006.0 |
| 20260505000458 | 82 | 89 | 4.3 | 7.0 | 0.00 | 0.00 | 0.00 | 32 | 1006.1 |
| 20260505000001 | 82 | 159 | 1.7 | 7.8 | 0.00 | 0.00 | 0.00 | 31 | 1006.0 |
| 20260504235002 | 82 | 166 | 0.9 | 6.1 | 0.00 | 0.00 | 0.00 | 32 | 1006.0 |
| 20260504234458 | 83 | 159 | 2.6 | 6.1 | 0.00 | 0.00 | 0.00 | 30 | 1006.0 |
| 20260504233000 | 83 | 190 | 0.9 | 3.5 | 0.00 | 0.00 | 0.00 | 30 | 1006.1 |
| 20260504231959 | 84 | 282 | 2.6 | 5.2 | 0.00 | 0.00 | 0.00 | 31 | 1006.1 |
| 20260504231457 | 84 | 240 | 3.5 | 7.0 | 0.00 | 0.00 | 0.00 | 31 | 1006.2 |
| 20260504230003 | 83 | 123 | 1.7 | 4.3 | 0.00 | 0.00 | 0.00 | 30 | 1006.4 |
| 20260504225458 | 83 | 198 | 2.6 | 7.8 | 0.00 | 0.00 | 0.00 | 29 | 1006.4 |
| 20260504224959 | 84 | 248 | 4.3 | 7.8 | 0.00 | 0.00 | 0.00 | 29 | 1006.4 |
| 20260504224458 | 84 | 217 | 2.6 | 7.0 | 0.00 | 0.00 | 0.00 | 31 | 1006.5 |
| 20260504223458 | 85 | 207 | 3.5 | 7.0 | 0.00 | 0.00 | 0.00 | 29 | 1006.6 |
| 20260504223001 | 84 | 116 | 1.7 | 7.8 | 0.00 | 0.00 | 0.00 | 28 | 1006.7 |
| 20260504222458 | 84 | 217 | 2.6 | 7.8 | 0.00 | 0.00 | 0.00 | 28 | 1006.7 |
| 20260504221959 | 84 | 217 | 3.5 | 6.1 | 0.00 | 0.00 | 0.00 | 30 | 1006.8 |
| 20260504221457 | 83 | 168 | 2.6 | 5.2 | 0.00 | 0.00 | 0.00 | 30 | 1006.8 |
| 20260504220958 | 83 | 137 | 2.6 | 5.2 | 0.00 | 0.00 | 0.00 | 30 | 1006.8 |
| 20260504220457 | 84 | 134 | 2.6 | 7.8 | 0.00 | 0.00 | 0.00 | 29 | 1006.9 |
| 20260504220003 | 83 | 133 | 3.5 | 7.8 | 0.00 | 0.00 | 0.00 | 33 | 1007.0 |
| 20260504215458 | 84 | 225 | 3.5 | 7.0 | 0.00 | 0.00 | 0.00 | 29 | 1007.1 |
| 20260504214458 | 82 | 184 | 1.7 | 4.3 | 0.00 | 0.00 | 0.00 | 31 | 1007.2 |
| 20260504214000 | 82 | 242 | 1.7 | 4.3 | 0.00 | 0.00 | 0.00 | 34 | 1007.2 |
| 20260504213457 | 82 | 130 | 0.9 | 5.2 | 0.00 | 0.00 | 0.00 | 35 | 1007.4 |
| 20260504213000 | 83 | 207 | 2.6 | 6.1 | 0.00 | 0.00 | 0.00 | 33 | 1007.3 |
| 20260504212458 | 83 | 169 | 4.3 | 6.1 | 0.00 | 0.00 | 0.00 | 34 | 1007.4 |
| 20260504212000 | 83 | 177 | 1.7 | 5.2 | 0.00 | 0.00 | 0.00 | 35 | 1007.5 |
| 20260504211457 | 82 | 194 | 3.5 | 5.2 | 0.00 | 0.00 | 0.00 | 36 | 1007.5 |
| 20260504210958 | 82 | 188 | 2.6 | 4.3 | 0.00 | 0.00 | 0.00 | 32 | 1007.5 |
| 20260504210457 | 81 | 9 | 1.7 | 3.5 | 0.00 | 0.00 | 0.00 | 34 | 1007.6 |
| 20260504205959 | 81 | 355 | 0.9 | 5.2 | 0.00 | 0.00 | 0.00 | 33 | 1007.7 |
| 20260504205000 | 82 | 209 | 2.6 | 6.1 | 0.00 | 0.00 | 0.00 | 37 | 1007.8 |
| 20260504204458 | 81 | 28 | 1.7 | 4.3 | 0.00 | 0.00 | 0.00 | 36 | 1007.8 |
| 20260504203959 | 82 | 242 | 0.9 | 4.3 | 0.00 | 0.00 | 0.00 | 33 | 1007.9 |
| 20260504203458 | 82 | 219 | 2.6 | 4.3 | 0.00 | 0.00 | 0.00 | 40 | 1007.9 |
| 20260504203000 | 81 | 268 | 0.9 | 5.2 | 0.00 | 0.00 | 0.00 | 39 | 1008.0 |
| 20260504202458 | 81 | 223 | 0.9 | 5.2 | 0.00 | 0.00 | 0.00 | 40 | 1008.0 |
| 20260504202000 | 80 | 260 | 2.6 | 7.8 | 0.00 | 0.00 | 0.00 | 42 | 1008.1 |
| 20260504201458 | 79 | 270 | 1.7 | 7.8 | 0.00 | 0.00 | 0.00 | 37 | 1008.2 |
| 20260504200458 | 80 | 259 | 2.6 | 7.0 | 0.00 | 0.00 | 0.00 | 44 | 1008.1 |
| 20260504200001 | 81 | 315 | 3.5 | 7.0 | 0.00 | 0.00 | 0.00 | 44 | 1008.1 |
| 20260504195459 | 81 | 243 | 2.6 | 7.0 | 0.00 | 0.00 | 0.00 | 42 | 1008.1 |
| 20260504194959 | 81 | 213 | 1.7 | 7.0 | 0.00 | 0.00 | 0.00 | 38 | 1008.2 |
| 20260504194457 | 80 | 237 | 1.7 | 5.2 | 0.00 | 0.00 | 0.00 | 40 | 1008.2 |
| 20260504193958 | 79 | 200 | 2.6 | 7.0 | 0.00 | 0.00 | 0.00 | 43 | 1008.3 |
| 20260504193457 | 80 | 247 | 4.3 | 7.0 | 0.00 | 0.00 | 0.00 | 40 | 1008.3 |
| 20260504192457 | 80 | 272 | 3.5 | 7.0 | 0.00 | 0.00 | 0.00 | 44 | 1008.3 |
| 20260504191959 | 79 | 243 | 0.9 | 8.7 | 0.00 | 0.00 | 0.00 | 45 | 1008.3 |
| 20260504191457 | 79 | 240 | 4.3 | 8.7 | 0.00 | 0.00 | 0.00 | 42 | 1008.3 |
| 20260504190958 | 79 | 263 | 4.3 | 7.0 | 0.00 | 0.00 | 0.00 | 46 | 1008.3 |
| 20260504190457 | 79 | 250 | 2.6 | 7.0 | 0.00 | 0.00 | 0.00 | 43 | 1008.3 |
| 20260504190002 | 78 | 221 | 2.6 | 7.0 | 0.00 | 0.00 | 0.00 | 43 | 1008.4 |
| 20260504184958 | 79 | 182 | 1.7 | 7.0 | 0.00 | 0.00 | 0.00 | 43 | 1008.5 |
| 20260504184458 | 78 | 203 | 3.5 | 6.1 | 0.00 | 0.00 | 0.00 | 37 | 1008.5 |
| 20260504183958 | 78 | 241 | 2.6 | 6.1 | 0.00 | 0.00 | 0.00 | 39 | 1008.5 |
| 20260504182958 | 77 | 246 | 3.5 | 7.8 | 0.00 | 0.00 | 0.00 | 39 | 1008.5 |
| 20260504182458 | 77 | 262 | 2.6 | 7.8 | 0.00 | 0.00 | 0.00 | 39 | 1008.5 |
| 20260504181458 | 76 | 192 | 4.3 | 7.8 | 0.00 | 0.00 | 0.00 | 39 | 1008.6 |
| 20260504180958 | 76 | 249 | 1.7 | 5.2 | 0.00 | 0.00 | 0.00 | 43 | 1008.7 |
| 20260504180459 | 75 | 244 | 3.5 | 7.0 | 0.00 | 0.00 | 0.00 | 43 | 1008.7 |
| 20260504175958 | 75 | 268 | 2.6 | 7.8 | 0.00 | 0.00 | 0.00 | 42 | 1008.8 |
| 20260504175457 | 75 | 186 | 4.3 | 7.8 | 0.00 | 0.00 | 0.00 | 42 | 1008.9 |
| 20260504174958 | 75 | 213 | 4.3 | 7.0 | 0.00 | 0.00 | 0.00 | 43 | 1008.8 |
| 20260504174457 | 74 | 269 | 0.9 | 5.2 | 0.00 | 0.00 | 0.00 | 43 | 1008.8 |
| 20260504173958 | 74 | 246 | 1.7 | 5.2 | 0.00 | 0.00 | 0.00 | 48 | 1008.8 |
| 20260504173457 | 73 | 265 | 2.6 | 6.1 | 0.00 | 0.00 | 0.00 | 46 | 1008.8 |
| 20260504172957 | 74 | 279 | 3.5 | 6.1 | 0.00 | 0.00 | 0.00 | 48 | 1008.8 |
| 20260504172458 | 73 | 269 | 3.5 | 7.0 | 0.00 | 0.00 | 0.00 | 48 | 1008.8 |
| 20260504171958 | 73 | 335 | 3.5 | 6.1 | 0.00 | 0.00 | 0.00 | 46 | 1008.7 |
| 20260504171458 | 73 | 247 | 3.5 | 6.1 | 0.00 | 0.00 | 0.00 | 47 | 1008.7 |
| 20260504170958 | 73 | 253 | 3.5 | 6.1 | 0.00 | 0.00 | 0.00 | 48 | 1008.7 |
| 20260504170458 | 72 | 323 | 4.3 | 6.1 | 0.00 | 0.00 | 0.00 | 48 | 1008.7 |